Check out our new PWSWeather beta!
PWSweather.com
Personal Weather Stations
Station Observations
BELLARIA
Bellaria I. M.IT 47814

Bellaria I. M.IT 47814

Lat: 44.1450048, Lon: 12.4647733

Elevation: 6

Station Type: PCE-FWS20 [Fine Offset]

http://meteobellaria.altervista.org

Latest ConditionsUpdated 12:50:03 PM GMT+01:01 Thursday, Feb 27, 2020
Currently Today's Max Today's Min Today's Average
Temperature 56.7°F13.7°C 56.7°F13.7°C 40.8°F4.9°C 46.1°F7.8°C
Dew Point 17.2°F-8.2°C 38.3°F3.5°C 13.0°F-10.6°C 26.9°F-2.8°C
Winds 4.8 mph SSW7.7 kmh SSW 14.0 mph -22.5 kmh - - 6.0 mph 9.7 kmh
Wind Gusts 10.7 mph17.2 kmh 25.1 mph40.4 kmh - -
Humidity 21% 81% 19% 52%
Pressure 29.81 in1009.5 mb 29.86 in1011.2 mb 29.67 in1004.7 mb -
Hour Temp Dew Point Humidity Winds Wind Gusts Pressure Precip Precip Rate Daily Precip Total
12:50 PM 56.7°F13.7°C 17.2°F-8.2°C 21% 4.8 mph SSW7.7 kmh SSW 10.7 mph17.2 kmh 29.81 in1009.5 mb 0.00 in0.0 mm 0.00 in0.0 mm 0.00 in0.0 mm
12:40 PM 56.5°F13.6°C 17.0°F-8.3°C 21% 4.5 mph WSW7.2 kmh WSW 13.0 mph20.9 kmh 29.82 in1009.8 mb 0.00 in0.0 mm 0.00 in0.0 mm 0.00 in0.0 mm
12:30 PM 56.1°F13.4°C 15.6°F-9.1°C 20% 7.0 mph WSW11.3 kmh WSW 13.0 mph20.9 kmh 29.83 in1010.2 mb 0.00 in0.0 mm 0.00 in0.0 mm 0.00 in0.0 mm
12:20 PM 55.9°F13.3°C 16.6°F-8.6°C 21% 6.4 mph WNW10.3 kmh WNW 10.7 mph17.2 kmh 29.83 in1010.2 mb 0.00 in0.0 mm 0.00 in0.0 mm 0.00 in0.0 mm
12:10 PM 55.6°F13.1°C 16.3°F-8.7°C 21% 8.6 mph SW13.8 kmh SW 12.1 mph19.5 kmh 29.84 in1010.5 mb 0.00 in0.0 mm 0.00 in0.0 mm 0.00 in0.0 mm
12:00 PM 54.9°F12.7°C 13.4°F-10.3°C 19% 8.0 mph SW12.9 kmh SW 12.1 mph19.5 kmh 29.84 in1010.5 mb 0.00 in0.0 mm 0.00 in0.0 mm 0.00 in0.0 mm
11:50 AM 54.9°F12.7°C 13.4°F-10.3°C 19% 9.8 mph WSW15.8 kmh WSW 15.9 mph25.6 kmh 29.84 in1010.5 mb 0.00 in0.0 mm 0.00 in0.0 mm 0.00 in0.0 mm
11:40 AM 54.7°F12.6°C 13.3°F-10.4°C 19% 9.4 mph SW15.1 kmh SW 16.8 mph27.0 kmh 29.85 in1010.8 mb 0.00 in0.0 mm 0.00 in0.0 mm 0.00 in0.0 mm
11:30 AM 54.3°F12.4°C 13.0°F-10.6°C 19% 10.9 mph SW17.5 kmh SW 21.3 mph34.3 kmh 29.85 in1010.8 mb 0.00 in0.0 mm 0.00 in0.0 mm 0.00 in0.0 mm
11:20 AM 54.3°F12.4°C 13.0°F-10.6°C 19% 10.7 mph S17.2 kmh S 21.3 mph34.3 kmh 29.85 in1010.8 mb 0.00 in0.0 mm 0.00 in0.0 mm 0.00 in0.0 mm
11:10 AM 54.1°F12.3°C 15.1°F-9.4°C 21% 8.2 mph SW13.2 kmh SW 15.2 mph24.5 kmh 29.85 in1010.8 mb 0.00 in0.0 mm 0.00 in0.0 mm 0.00 in0.0 mm
11:00 AM 53.6°F12.0°C 13.5°F-10.3°C 20% 11.2 mph SSW18.0 kmh SSW 20.6 mph33.2 kmh 29.86 in1011.2 mb 0.00 in0.0 mm 0.00 in0.0 mm 0.00 in0.0 mm
10:50 AM 53.2°F11.8°C 15.4°F-9.2°C 22% 14.0 mph SSW22.5 kmh SSW 23.5 mph37.8 kmh 29.85 in1010.8 mb 0.00 in0.0 mm 0.00 in0.0 mm 0.00 in0.0 mm
10:40 AM 53.1°F11.7°C 15.2°F-9.3°C 22% 11.7 mph W18.8 kmh W 18.3 mph29.5 kmh 29.86 in1011.2 mb 0.00 in0.0 mm 0.00 in0.0 mm 0.00 in0.0 mm
10:30 AM 52.9°F11.6°C 17.1°F-8.3°C 24% 13.3 mph S21.4 kmh S 25.1 mph40.4 kmh 29.86 in1011.2 mb 0.00 in0.0 mm 0.00 in0.0 mm 0.00 in0.0 mm
10:20 AM 52.5°F11.4°C 16.8°F-8.4°C 24% 13.1 mph WSW21.1 kmh WSW 23.5 mph37.8 kmh 29.86 in1011.2 mb 0.00 in0.0 mm 0.00 in0.0 mm 0.00 in0.0 mm
10:10 AM 51.8°F11.0°C 20.6°F-6.3°C 29% 8.3 mph S13.4 kmh S 12.1 mph19.5 kmh 29.85 in1010.8 mb 0.00 in0.0 mm 0.00 in0.0 mm 0.00 in0.0 mm
10:00 AM 51.8°F11.0°C 20.6°F-6.3°C 29% 8.3 mph SSW13.4 kmh SSW 14.5 mph23.3 kmh 29.85 in1010.8 mb 0.00 in0.0 mm 0.00 in0.0 mm 0.00 in0.0 mm
09:50 AM 51.4°F10.8°C 21.8°F-5.7°C 31% 6.4 mph S10.3 kmh S 14.5 mph23.3 kmh 29.84 in1010.5 mb 0.00 in0.0 mm 0.00 in0.0 mm 0.00 in0.0 mm
09:40 AM 50.9°F10.5°C 22.1°F-5.5°C 32% 6.2 mph S10.0 kmh S 10.7 mph17.2 kmh 29.85 in1010.8 mb 0.00 in0.0 mm 0.00 in0.0 mm 0.00 in0.0 mm
09:30 AM 50.4°F10.2°C 20.9°F-6.2°C 31% 9.0 mph SSW14.5 kmh SSW 14.5 mph23.3 kmh 29.84 in1010.5 mb 0.00 in0.0 mm 0.00 in0.0 mm 0.00 in0.0 mm
09:20 AM 49.8°F9.9°C 22.6°F-5.2°C 34% 7.2 mph S11.6 kmh S 13.6 mph21.9 kmh 29.85 in1010.8 mb 0.00 in0.0 mm 0.00 in0.0 mm 0.00 in0.0 mm
09:10 AM 48.9°F9.4°C 23.8°F-4.6°C 37% 8.4 mph S13.5 kmh S 15.2 mph24.5 kmh 29.85 in1010.8 mb 0.00 in0.0 mm 0.00 in0.0 mm 0.00 in0.0 mm
09:00 AM 48.0°F8.9°C 24.9°F-3.9°C 40% 6.1 mph S9.8 kmh S 12.1 mph19.5 kmh 29.85 in1010.8 mb 0.00 in0.0 mm 0.00 in0.0 mm 0.00 in0.0 mm
08:50 AM 46.9°F8.3°C 23.9°F-4.5°C 40% 6.2 mph S10.0 kmh S 10.7 mph17.2 kmh 29.85 in1010.8 mb 0.00 in0.0 mm 0.00 in0.0 mm 0.00 in0.0 mm
08:40 AM 46.8°F8.2°C 23.7°F-4.6°C 40% 8.1 mph S13.0 kmh S 9.8 mph15.8 kmh 29.85 in1010.8 mb 0.00 in0.0 mm 0.00 in0.0 mm 0.00 in0.0 mm
08:30 AM 45.7°F7.6°C 23.3°F-4.8°C 41% 7.5 mph S12.1 kmh S 10.7 mph17.2 kmh 29.85 in1010.8 mb 0.00 in0.0 mm 0.00 in0.0 mm 0.00 in0.0 mm
08:20 AM 45.0°F7.2°C 23.8°F-4.6°C 43% 6.1 mph S9.8 kmh S 9.2 mph14.8 kmh 29.85 in1010.8 mb 0.00 in0.0 mm 0.00 in0.0 mm 0.00 in0.0 mm
08:10 AM 44.1°F6.7°C 24.1°F-4.4°C 45% 6.7 mph S10.8 kmh S 7.6 mph12.2 kmh 29.84 in1010.5 mb 0.00 in0.0 mm 0.00 in0.0 mm 0.00 in0.0 mm
08:00 AM 43.3°F6.3°C 23.4°F-4.8°C 45% 4.8 mph S7.7 kmh S 9.2 mph14.8 kmh 29.84 in1010.5 mb 0.00 in0.0 mm 0.00 in0.0 mm 0.00 in0.0 mm
07:50 AM 43.0°F6.1°C 23.1°F-4.9°C 45% 4.0 mph S6.4 kmh S 6.0 mph9.7 kmh 29.84 in1010.5 mb 0.00 in0.0 mm 0.00 in0.0 mm 0.00 in0.0 mm
07:40 AM 42.3°F5.7°C 23.5°F-4.7°C 47% 4.5 mph S7.2 kmh S 6.0 mph9.7 kmh 29.83 in1010.2 mb 0.00 in0.0 mm 0.00 in0.0 mm 0.00 in0.0 mm
07:30 AM 42.1°F5.6°C 23.3°F-4.8°C 47% 5.3 mph S8.5 kmh S 7.6 mph12.2 kmh 29.82 in1009.8 mb 0.00 in0.0 mm 0.00 in0.0 mm 0.00 in0.0 mm
07:20 AM 41.5°F5.3°C 24.3°F-4.3°C 50% 5.5 mph S8.9 kmh S 7.6 mph12.2 kmh 29.81 in1009.5 mb 0.00 in0.0 mm 0.00 in0.0 mm 0.00 in0.0 mm
07:10 AM 41.4°F5.2°C 24.1°F-4.4°C 50% 3.4 mph S5.5 kmh S 6.9 mph11.1 kmh 29.81 in1009.5 mb 0.00 in0.0 mm 0.00 in0.0 mm 0.00 in0.0 mm
07:00 AM 41.2°F5.1°C 24.0°F-4.4°C 50% 4.0 mph S6.4 kmh S 6.9 mph11.1 kmh 29.80 in1009.1 mb 0.00 in0.0 mm 0.00 in0.0 mm 0.00 in0.0 mm
06:50 AM 41.4°F5.2°C 24.1°F-4.4°C 50% 4.4 mph S7.1 kmh S 6.9 mph11.1 kmh 29.80 in1009.1 mb 0.00 in0.0 mm 0.00 in0.0 mm 0.00 in0.0 mm
06:40 AM 41.5°F5.3°C 24.3°F-4.3°C 50% 3.4 mph S5.5 kmh S 5.4 mph8.7 kmh 29.79 in1008.8 mb 0.00 in0.0 mm 0.00 in0.0 mm 0.00 in0.0 mm
06:30 AM 41.9°F5.5°C 25.1°F-3.8°C 51% 3.1 mph S5.0 kmh S 5.4 mph8.7 kmh 29.79 in1008.8 mb 0.00 in0.0 mm 0.00 in0.0 mm 0.00 in0.0 mm
06:20 AM 42.1°F5.6°C 25.3°F-3.7°C 51% 1.8 mph S2.9 kmh S 5.4 mph8.7 kmh 29.79 in1008.8 mb 0.00 in0.0 mm 0.00 in0.0 mm 0.00 in0.0 mm
06:10 AM 41.9°F5.5°C 25.1°F-3.8°C 51% 2.9 mph SE4.7 kmh SE 5.4 mph8.7 kmh 29.78 in1008.5 mb 0.00 in0.0 mm 0.00 in0.0 mm 0.00 in0.0 mm
06:00 AM 41.7°F5.4°C 25.4°F-3.7°C 52% 0.7 mph SE1.1 kmh SE 3.8 mph6.1 kmh 29.78 in1008.5 mb 0.00 in0.0 mm 0.00 in0.0 mm 0.00 in0.0 mm
05:50 AM 41.7°F5.4°C 26.8°F-2.9°C 55% Calm Calm -- 29.78 in1008.5 mb 0.00 in0.0 mm 0.00 in0.0 mm 0.00 in0.0 mm
05:40 AM 41.5°F5.3°C 27.5°F-2.5°C 57% 2.6 mph S4.2 kmh S 5.4 mph8.7 kmh 29.78 in1008.5 mb 0.00 in0.0 mm 0.00 in0.0 mm 0.00 in0.0 mm
05:30 AM 41.2°F5.1°C 28.0°F-2.2°C 59% 6.1 mph S9.8 kmh S 9.2 mph14.8 kmh 29.77 in1008.1 mb 0.00 in0.0 mm 0.00 in0.0 mm 0.00 in0.0 mm
05:20 AM 41.2°F5.1°C 28.4°F-2.0°C 60% 4.3 mph S6.9 kmh S 9.2 mph14.8 kmh 29.77 in1008.1 mb 0.00 in0.0 mm 0.00 in0.0 mm 0.00 in0.0 mm
05:10 AM 41.4°F5.2°C 28.9°F-1.7°C 61% 4.2 mph S6.8 kmh S 6.0 mph9.7 kmh 29.77 in1008.1 mb 0.00 in0.0 mm 0.00 in0.0 mm 0.00 in0.0 mm
05:00 AM 41.4°F5.2°C 29.3°F-1.5°C 62% 4.3 mph S6.9 kmh S 6.9 mph11.1 kmh 29.77 in1008.1 mb 0.00 in0.0 mm 0.00 in0.0 mm 0.00 in0.0 mm
04:50 AM 41.4°F5.2°C 30.1°F-1.1°C 64% 5.5 mph S8.9 kmh S 9.8 mph15.8 kmh 29.77 in1008.1 mb 0.00 in0.0 mm 0.00 in0.0 mm 0.00 in0.0 mm
04:40 AM 41.2°F5.1°C 31.4°F-0.3°C 68% 5.5 mph SSW8.9 kmh SSW 7.6 mph12.2 kmh 29.76 in1007.8 mb 0.00 in0.0 mm 0.00 in0.0 mm 0.00 in0.0 mm
04:30 AM 41.0°F5.0°C 32.0°F0.0°C 70% 5.0 mph S8.0 kmh S 7.6 mph12.2 kmh 29.76 in1007.8 mb 0.00 in0.0 mm 0.00 in0.0 mm 0.00 in0.0 mm
04:20 AM 40.8°F4.9°C 32.8°F0.4°C 73% 3.9 mph S6.3 kmh S 6.9 mph11.1 kmh 29.76 in1007.8 mb 0.00 in0.0 mm 0.00 in0.0 mm 0.00 in0.0 mm
04:10 AM 41.0°F5.0°C 33.4°F0.8°C 74% 3.8 mph S6.1 kmh S 5.4 mph8.7 kmh 29.75 in1007.5 mb 0.00 in0.0 mm 0.00 in0.0 mm 0.00 in0.0 mm
04:00 AM 41.0°F5.0°C 33.4°F0.8°C 74% 4.1 mph S6.6 kmh S 6.0 mph9.7 kmh 29.76 in1007.8 mb 0.00 in0.0 mm 0.00 in0.0 mm 0.00 in0.0 mm
03:50 AM 41.0°F5.0°C 33.4°F0.8°C 74% 4.0 mph S6.4 kmh S 6.0 mph9.7 kmh 29.75 in1007.5 mb 0.00 in0.0 mm 0.00 in0.0 mm 0.00 in0.0 mm
03:40 AM 41.2°F5.1°C 33.9°F1.1°C 75% 4.2 mph S6.8 kmh S 6.9 mph11.1 kmh 29.75 in1007.5 mb 0.00 in0.0 mm 0.00 in0.0 mm 0.00 in0.0 mm
03:30 AM 41.4°F5.2°C 34.7°F1.5°C 77% 4.5 mph S7.2 kmh S 9.2 mph14.8 kmh 29.75 in1007.5 mb 0.00 in0.0 mm 0.00 in0.0 mm 0.00 in0.0 mm
03:20 AM 41.5°F5.3°C 35.5°F1.9°C 79% 5.0 mph S8.0 kmh S 9.2 mph14.8 kmh 29.74 in1007.1 mb 0.00 in0.0 mm 0.00 in0.0 mm 0.00 in0.0 mm
03:10 AM 41.5°F5.3°C 35.8°F2.1°C 80% 4.4 mph S7.1 kmh S 7.6 mph12.2 kmh 29.74 in1007.1 mb 0.00 in0.0 mm 0.00 in0.0 mm 0.00 in0.0 mm
03:00 AM 41.7°F5.4°C 36.0°F2.2°C 80% 6.1 mph SSE9.8 kmh SSE 9.8 mph15.8 kmh 29.73 in1006.8 mb 0.00 in0.0 mm 0.00 in0.0 mm 0.00 in0.0 mm
02:50 AM 41.9°F5.5°C 36.2°F2.3°C 80% 6.3 mph S10.1 kmh S 9.2 mph14.8 kmh 29.74 in1007.1 mb 0.00 in0.0 mm 0.00 in0.0 mm 0.00 in0.0 mm
02:40 AM 42.1°F5.6°C 36.7°F2.6°C 81% 4.8 mph S7.7 kmh S 7.6 mph12.2 kmh 29.73 in1006.8 mb 0.00 in0.0 mm 0.00 in0.0 mm 0.00 in0.0 mm
02:30 AM 42.4°F5.8°C 37.0°F2.8°C 81% 3.8 mph S6.1 kmh S 7.6 mph12.2 kmh 29.73 in1006.8 mb 0.00 in0.0 mm 0.00 in0.0 mm 0.00 in0.0 mm
02:20 AM 42.8°F6.0°C 37.1°F2.8°C 80% 3.2 mph S5.1 kmh S 5.4 mph8.7 kmh 29.73 in1006.8 mb 0.00 in0.0 mm 0.00 in0.0 mm 0.00 in0.0 mm
02:10 AM 43.0°F6.1°C 37.2°F2.9°C 80% 3.9 mph S6.3 kmh S 6.0 mph9.7 kmh 29.73 in1006.8 mb 0.00 in0.0 mm 0.00 in0.0 mm 0.00 in0.0 mm
02:00 AM 43.3°F6.3°C 37.6°F3.1°C 80% 5.3 mph S8.5 kmh S 9.8 mph15.8 kmh 29.73 in1006.8 mb 0.00 in0.0 mm 0.00 in0.0 mm 0.00 in0.0 mm
01:50 AM 43.7°F6.5°C 37.9°F3.3°C 80% 5.5 mph S8.9 kmh S 8.3 mph13.4 kmh 29.73 in1006.8 mb 0.00 in0.0 mm 0.00 in0.0 mm 0.00 in0.0 mm
01:40 AM 44.1°F6.7°C 38.3°F3.5°C 80% 5.8 mph S9.3 kmh S 10.7 mph17.2 kmh 29.73 in1006.8 mb 0.00 in0.0 mm 0.00 in0.0 mm 0.00 in0.0 mm
01:30 AM 44.2°F6.8°C 38.1°F3.4°C 79% 4.6 mph S7.4 kmh S 8.3 mph13.4 kmh 29.73 in1006.8 mb 0.00 in0.0 mm 0.00 in0.0 mm 0.00 in0.0 mm
01:20 AM 44.6°F7.0°C 37.8°F3.2°C 77% 5.7 mph S9.2 kmh S 8.3 mph13.4 kmh 29.72 in1006.4 mb 0.00 in0.0 mm 0.00 in0.0 mm 0.00 in0.0 mm
01:10 AM 45.3°F7.4°C 37.5°F3.1°C 74% 4.3 mph S6.9 kmh S 8.3 mph13.4 kmh 29.72 in1006.4 mb 0.00 in0.0 mm 0.00 in0.0 mm 0.00 in0.0 mm
01:00 AM 46.0°F7.8°C 37.2°F2.9°C 71% 1.8 mph S2.9 kmh S 6.0 mph9.7 kmh 29.72 in1006.4 mb 0.00 in0.0 mm 0.00 in0.0 mm 0.00 in0.0 mm
12:50 AM 46.2°F7.9°C 37.3°F2.9°C 71% Calm Calm -- 29.72 in1006.4 mb 0.00 in0.0 mm 0.00 in0.0 mm 0.00 in0.0 mm
12:40 AM 46.2°F7.9°C 37.3°F2.9°C 71% 3.5 mph NE5.6 kmh NE 7.6 mph12.2 kmh 29.72 in1006.4 mb 0.00 in0.0 mm 0.00 in0.0 mm 0.00 in0.0 mm
12:30 AM 46.4°F8.0°C 38.2°F3.4°C 73% 6.2 mph NE10.0 kmh NE 12.1 mph19.5 kmh 29.70 in1005.8 mb 0.00 in0.0 mm 0.00 in0.0 mm 0.00 in0.0 mm
12:20 AM 46.4°F8.0°C 38.2°F3.4°C 73% 9.6 mph NE15.4 kmh NE 14.5 mph23.3 kmh 29.70 in1005.8 mb 0.00 in0.0 mm 0.00 in0.0 mm 0.00 in0.0 mm
12:10 AM 46.4°F8.0°C 38.2°F3.4°C 73% 9.9 mph NE15.9 kmh NE 15.2 mph24.5 kmh 29.68 in1005.1 mb 0.00 in0.0 mm 0.00 in0.0 mm 0.00 in0.0 mm
12:00 AM 46.0°F7.8°C 38.2°F3.4°C 74% 10.5 mph NE16.9 kmh NE 17.4 mph28.0 kmh 29.67 in1004.7 mb 0.00 in0.0 mm 0.00 in0.0 mm 0.00 in0.0 mm